Nissho Maru No7 — JH3472 — position and weather

sailwx.info

Track history (hours):
 
Tides and Currents Weather Stations Pressure Air Temp Water Temp Dewpoint Dewpoint Depression Visibility Wind Speed Wind Dir Waves Ship Positions

Nissho Maru No7

Last reported at 2014-Nov-18 08:14 UTC. Time now 2014-Nov-24 20:09 UTC.
Position N 35°03' E 139°44'.

Length 71 m; draft 4 m.

MMSI: 431200355.

Date/timePositionNaut miles runAvg speedWind from/ knotsBaromVisibWave heightAir tempDewpointWater temp
2014-Nov-18 08:14N 35°03' E 139°44'811.7
2014-Nov-18 07:33N 35°11' E 139°46'1211.5
2014-Nov-18 06:33N 35°22' E 139°42'6 5.9
2014-Nov-18 05:32N 35°20' E 139°49'1 0.8
2014-Nov-18 04:33N 35°20' E 139°50'0 0.0
2014-Nov-18 03:33N 35°20' E 139°50'0 0.0
2014-Nov-18 02:33N 35°20' E 139°50'0 0.0
2014-Nov-18 01:33N 35°20' E 139°50'0 0.0
2014-Nov-18 00:33N 35°20' E 139°50'0 0.0
2014-Nov-17 23:33N 35°20' E 139°50'1 1.2
2014-Nov-17 22:33N 35°21' E 139°49'1 0.8
2014-Nov-17 21:33N 35°21' E 139°48'0 0.0
2014-Nov-17 20:33N 35°21' E 139°48'0 0.0
2014-Nov-17 19:33N 35°21' E 139°48'0 0.0
2014-Nov-17 18:33N 35°21' E 139°48'0 0.0
2014-Nov-17 17:33N 35°21' E 139°48'0 0.0
2014-Nov-17 16:33N 35°21' E 139°48'0 0.0
2014-Nov-17 15:33N 35°21' E 139°48'0 0.0
2014-Nov-17 14:33N 35°21' E 139°48'0 0.0
2014-Nov-17 13:33N 35°21' E 139°48'0 0.0
2014-Nov-17 12:33N 35°21' E 139°48'0 0.0
2014-Nov-17 11:33N 35°21' E 139°48'0 0.0
2014-Nov-17 10:33N 35°21' E 139°48'0 0.0
2014-Nov-17 09:33N 35°21' E 139°48'0 0.0
2014-Nov-17 08:33N 35°21' E 139°48'0 0.1
2014-Nov-17 07:33N 35°21' E 139°48'0 0.0
2014-Nov-17 06:33N 35°21' E 139°48'0 0.0
2014-Nov-17 05:33N 35°21' E 139°48'0 0.0
2014-Nov-17 04:33N 35°21' E 139°48'4 3.6
2014-Nov-17 03:33N 35°20' E 139°44'  
2014-Nov-13 10:33N 34°17' E 132°30'118 8.8
2014-Nov-12 21:05N 34°35' E 134°52'5 8.2
2014-Nov-12 20:32N 34°37' E 134°57'7 6.7
2014-Nov-12 19:33N 34°35' E 135°04'1010.1
2014-Nov-12 18:33N 34°25' E 135°02'1110.7
2014-Nov-12 17:32N 34°15' E 134°59'1110.7
2014-Nov-12 16:32N 34°04' E 135°00'  
Track history (hours):
 
Tides and Currents Weather Stations Pressure Air Temp Water Temp Dewpoint Dewpoint Depression Visibility Wind Speed Wind Dir Waves Ship Positions

Nissho Maru No7

Last reported at 2014-Nov-18 08:14 UTC. Time now 2014-Nov-24 20:09 UTC.
Position N 35°03' E 139°44'.

Length 71 m; draft 4 m.

MMSI: 431200355.

Date/timePositionNaut miles runAvg speedWind from/ knotsBaromVisibWave heightAir tempDewpointWater temp
2014-Nov-18 08:14N 35°03' E 139°44'811.7
2014-Nov-18 07:33N 35°11' E 139°46'1211.5
2014-Nov-18 06:33N 35°22' E 139°42'6 5.9
2014-Nov-18 05:32N 35°20' E 139°49'1 0.8
2014-Nov-18 04:33N 35°20' E 139°50'0 0.0
2014-Nov-18 03:33N 35°20' E 139°50'0 0.0
2014-Nov-18 02:33N 35°20' E 139°50'0 0.0
2014-Nov-18 01:33N 35°20' E 139°50'0 0.0
2014-Nov-18 00:33N 35°20' E 139°50'0 0.0
2014-Nov-17 23:33N 35°20' E 139°50'1 1.2
2014-Nov-17 22:33N 35°21' E 139°49'1 0.8
2014-Nov-17 21:33N 35°21' E 139°48'0 0.0
2014-Nov-17 20:33N 35°21' E 139°48'0 0.0
2014-Nov-17 19:33N 35°21' E 139°48'0 0.0
2014-Nov-17 18:33N 35°21' E 139°48'0 0.0
2014-Nov-17 17:33N 35°21' E 139°48'0 0.0
2014-Nov-17 16:33N 35°21' E 139°48'0 0.0
2014-Nov-17 15:33N 35°21' E 139°48'0 0.0
2014-Nov-17 14:33N 35°21' E 139°48'0 0.0
2014-Nov-17 13:33N 35°21' E 139°48'0 0.0
2014-Nov-17 12:33N 35°21' E 139°48'0 0.0
2014-Nov-17 11:33N 35°21' E 139°48'0 0.0
2014-Nov-17 10:33N 35°21' E 139°48'0 0.0
2014-Nov-17 09:33N 35°21' E 139°48'0 0.0
2014-Nov-17 08:33N 35°21' E 139°48'0 0.1
2014-Nov-17 07:33N 35°21' E 139°48'0 0.0
2014-Nov-17 06:33N 35°21' E 139°48'0 0.0
2014-Nov-17 05:33N 35°21' E 139°48'0 0.0
2014-Nov-17 04:33N 35°21' E 139°48'4 3.6
2014-Nov-17 03:33N 35°20' E 139°44'  
2014-Nov-13 10:33N 34°17' E 132°30'118 8.8
2014-Nov-12 21:05N 34°35' E 134°52'5 8.2
2014-Nov-12 20:32N 34°37' E 134°57'7 6.7
2014-Nov-12 19:33N 34°35' E 135°04'1010.1
2014-Nov-12 18:33N 34°25' E 135°02'1110.7
2014-Nov-12 17:32N 34°15' E 134°59'1110.7
2014-Nov-12 16:32N 34°04' E 135°00'  

Dump ship's entire track history